createdAt,value
2023-02-09T00:01:05.341Z,8.43
2023-02-09T00:03:33.114Z,7.33
2023-02-09T00:06:02.546Z,8.23
2023-02-09T00:08:32.417Z,7.60
2023-02-09T00:11:00.312Z,7.93
2023-02-09T00:13:27.309Z,7.53
2023-02-09T00:15:55.643Z,7.70
2023-02-09T00:18:23.887Z,7.90
2023-02-09T00:20:56.714Z,8.17
2023-02-09T00:23:25.912Z,7.30
2023-02-09T00:25:53.792Z,7.70
2023-02-09T00:28:21.697Z,7.47
2023-02-09T00:30:49.544Z,7.73
2023-02-09T00:33:17.344Z,7.43
2023-02-09T00:35:45.249Z,7.07
2023-02-09T00:38:13.275Z,7.57
2023-02-09T00:40:42.666Z,8.00
2023-02-09T00:43:11.698Z,7.80
2023-02-09T00:45:39.460Z,8.37
2023-02-09T00:48:07.626Z,8.50
2023-02-09T00:50:35.302Z,7.77
2023-02-09T00:53:03.040Z,8.07
2023-02-09T00:55:30.697Z,7.73
2023-02-09T00:57:59.896Z,8.50
2023-02-09T01:00:27.743Z,7.00
2023-02-09T01:03:10.330Z,7.30
2023-02-09T01:05:39.763Z,6.13
2023-02-09T01:08:07.490Z,7.37
2023-02-09T01:10:35.248Z,7.90
2023-02-09T01:13:04.373Z,8.07
2023-02-09T01:15:32.106Z,7.70
2023-02-09T01:18:00.010Z,7.27
2023-02-09T01:20:27.994Z,7.10
2023-02-09T01:22:55.697Z,7.80
2023-02-09T01:25:23.356Z,7.43
2023-02-09T01:27:51.066Z,7.70
2023-02-09T01:30:20.134Z,7.80
2023-02-09T01:32:47.871Z,8.73
2023-02-09T01:35:15.541Z,7.60
2023-02-09T01:37:43.335Z,8.50
2023-02-09T01:40:12.043Z,7.80
2023-02-09T01:42:40.135Z,8.33
2023-02-09T01:45:24.240Z,8.07
2023-02-09T01:47:55.256Z,7.73
2023-02-09T01:50:23.055Z,8.47
2023-02-09T01:52:51.217Z,7.83
2023-02-09T01:55:20.938Z,7.77
2023-02-09T01:57:50.211Z,9.10
2023-02-09T02:00:19.122Z,8.50
2023-02-09T02:02:50.544Z,7.80
2023-02-09T02:05:22.280Z,8.37
2023-02-09T02:07:53.041Z,8.00
2023-02-09T02:10:35.059Z,8.37
2023-02-09T02:13:02.703Z,9.07
2023-02-09T02:15:31.969Z,8.30
2023-02-09T02:18:17.432Z,8.60
2023-02-09T02:21:32.050Z,8.33
2023-02-09T02:24:12.618Z,8.77
2023-02-09T02:26:47.293Z,8.47
2023-02-09T02:29:25.930Z,7.93
2023-02-09T02:49:28.568Z,8.07
2023-02-09T02:51:57.670Z,9.20
2023-02-09T02:54:27.067Z,8.33
2023-02-09T02:56:55.739Z,8.90
2023-02-09T03:01:54.786Z,8.33
2023-02-09T03:04:23.938Z,8.40
2023-02-09T03:06:53.225Z,8.57
2023-02-09T03:09:20.786Z,9.40
2023-02-09T03:11:51.419Z,9.37
2023-02-09T03:14:27.659Z,8.50
2023-02-09T03:17:00.007Z,9.87
2023-02-09T03:19:33.359Z,6.97
2023-02-09T03:22:05.174Z,9.10
2023-02-09T03:24:37.233Z,8.53
2023-02-09T03:27:14.830Z,8.63
2023-02-09T03:29:43.432Z,10.37
2023-02-09T03:32:11.161Z,9.37
2023-02-09T03:34:38.778Z,8.63
2023-02-09T03:37:07.845Z,8.97
2023-02-09T03:39:35.461Z,9.23
2023-02-09T03:42:03.206Z,8.93
2023-02-09T03:44:30.965Z,9.63
2023-02-09T03:46:59.780Z,9.63
2023-02-09T03:49:28.592Z,9.03
2023-02-09T03:51:56.933Z,9.03
2023-02-09T03:54:25.810Z,8.93
2023-02-09T03:56:53.499Z,8.93
2023-02-09T03:59:22.014Z,9.87
2023-02-09T04:01:49.649Z,9.47
2023-02-09T04:04:17.483Z,9.20
2023-02-09T04:06:46.155Z,9.10
2023-02-09T04:09:13.798Z,9.87
2023-02-09T04:11:43.822Z,9.77
2023-02-09T04:14:11.447Z,10.10
2023-02-09T04:16:39.174Z,9.43
2023-02-09T04:19:09.031Z,9.27
2023-02-09T04:21:37.027Z,9.93
2023-02-09T04:24:04.686Z,10.17
2023-02-09T04:26:32.309Z,9.60
2023-02-09T04:29:01.229Z,9.17
2023-02-09T04:31:28.927Z,9.63
2023-02-09T04:33:56.556Z,10.37
2023-02-09T04:36:24.182Z,8.83
2023-02-09T04:38:51.823Z,10.43
2023-02-09T04:41:19.515Z,10.43
2023-02-09T04:43:47.150Z,10.07
2023-02-09T04:46:16.832Z,10.93
2023-02-09T04:48:44.507Z,10.63
2023-02-09T04:51:12.214Z,9.87
2023-02-09T04:53:39.904Z,9.73
2023-02-09T04:56:07.918Z,9.30
2023-02-09T04:58:53.208Z,8.67
2023-02-09T05:01:23.405Z,9.70
2023-02-09T05:03:51.087Z,11.53
2023-02-09T05:06:18.959Z,9.43
2023-02-09T05:08:46.528Z,10.80
2023-02-09T05:11:14.168Z,10.47
2023-02-09T05:13:42.339Z,10.67
2023-02-09T05:16:10.935Z,10.70
2023-02-09T05:18:39.919Z,11.10
2023-02-09T05:21:07.629Z,10.60
2023-02-09T05:23:35.227Z,11.33
2023-02-09T05:26:02.969Z,10.10
2023-02-09T05:28:30.583Z,10.77
2023-02-09T05:30:58.287Z,10.23
2023-02-09T05:33:26.222Z,10.23
2023-02-09T05:35:55.707Z,10.87
2023-02-09T05:38:23.423Z,10.53
2023-02-09T05:40:51.230Z,10.63
2023-02-09T05:43:20.021Z,10.07
2023-02-09T05:45:47.732Z,11.33
2023-02-09T05:48:15.327Z,11.73
2023-02-09T05:50:42.944Z,10.40
2023-02-09T05:53:14.422Z,10.30
2023-02-09T05:55:43.510Z,10.73
2023-02-09T05:58:11.174Z,10.43
2023-02-09T06:00:38.790Z,11.87
2023-02-09T06:03:06.410Z,10.70
2023-02-09T06:05:34.041Z,11.53
2023-02-09T06:08:01.697Z,11.50
2023-02-09T06:10:30.627Z,9.27
2023-02-09T06:12:58.293Z,11.77
2023-02-09T06:15:25.887Z,11.20
2023-02-09T06:17:53.520Z,10.73
2023-02-09T06:20:21.154Z,9.53
2023-02-09T06:22:48.729Z,10.80
2023-02-09T06:25:16.522Z,12.07
2023-02-09T06:27:45.582Z,12.07
2023-02-09T06:30:14.193Z,11.17
2023-02-09T06:32:41.839Z,11.17
2023-02-09T06:35:09.540Z,11.10
2023-02-09T06:37:37.203Z,11.40
2023-02-09T06:40:05.374Z,11.23
2023-02-09T06:42:44.520Z,11.43
2023-02-09T06:45:13.943Z,9.93
2023-02-09T06:47:41.901Z,11.87
2023-02-09T06:50:09.953Z,12.10
2023-02-09T06:52:37.620Z,11.00
2023-02-09T06:55:06.543Z,11.90
2023-02-09T06:57:34.772Z,11.53
2023-02-09T07:00:02.502Z,11.43
2023-02-09T07:02:31.491Z,11.53
2023-02-09T07:04:59.127Z,11.03
2023-02-09T07:07:26.830Z,11.33
2023-02-09T07:09:54.445Z,10.77
2023-02-09T07:12:22.043Z,11.27
2023-02-09T07:14:49.607Z,11.00
2023-02-09T07:17:17.317Z,14.43
2023-02-09T07:19:46.312Z,11.40
2023-02-09T07:22:13.936Z,11.27
2023-02-09T07:24:41.483Z,11.33
2023-02-09T07:27:09.154Z,10.70
2023-02-09T07:29:36.754Z,11.90
2023-02-09T07:32:07.658Z,12.47
2023-02-09T07:34:35.487Z,12.30
2023-02-09T07:37:04.552Z,12.00
2023-02-09T07:39:32.514Z,10.90
2023-02-09T07:42:00.313Z,10.63
2023-02-09T07:44:28.046Z,11.87
2023-02-09T07:46:55.719Z,12.70
2023-02-09T07:49:23.347Z,12.23
2023-02-09T07:51:51.006Z,11.33
2023-02-09T07:54:19.975Z,13.00
2023-02-09T07:56:47.734Z,12.27
2023-02-09T07:59:15.827Z,11.00
2023-02-09T08:01:43.436Z,13.80
2023-02-09T08:04:11.480Z,13.30
2023-02-09T08:06:43.051Z,12.83
2023-02-09T08:09:11.756Z,14.53
2023-02-09T08:11:44.617Z,12.90
2023-02-09T08:14:18.531Z,13.37
2023-02-09T08:16:46.145Z,12.43
2023-02-09T08:19:15.997Z,12.80
2023-02-09T08:21:44.583Z,12.57
2023-02-09T08:25:03.535Z,14.30
2023-02-09T08:27:38.666Z,13.73
2023-02-09T10:27:45.493Z,12.37
2023-02-09T10:45:31.289Z,10.77
2023-02-09T10:48:18.719Z,14.03
2023-02-09T10:51:31.308Z,12.07
2023-02-09T10:54:02.342Z,12.10
2023-02-09T10:56:34.907Z,12.67
2023-02-09T10:59:05.779Z,12.20
2023-02-09T11:01:35.757Z,11.67
2023-02-09T11:04:05.839Z,12.17
2023-02-09T11:06:37.555Z,12.40
2023-02-09T11:11:42.040Z,12.33
2023-02-09T11:21:57.041Z,11.27
2023-02-09T11:25:00.221Z,12.13
2023-02-09T11:46:40.553Z,12.60
2023-02-09T11:51:43.526Z,12.80
2023-02-09T11:54:14.556Z,12.18
2023-02-09T12:00:47.955Z,12.35
2023-02-09T12:03:26.762Z,12.20
2023-02-09T12:05:57.003Z,11.82
2023-02-09T12:08:38.469Z,12.05
2023-02-09T12:11:16.000Z,12.50
2023-02-09T12:14:06.193Z,12.38
2023-02-09T12:16:37.286Z,11.63
2023-02-09T12:33:05.117Z,13.20
2023-02-09T12:45:33.925Z,12.27
2023-02-09T12:48:31.045Z,11.57
2023-02-09T13:02:02.881Z,11.47
2023-02-09T13:04:33.692Z,11.33
2023-02-09T13:09:52.496Z,11.07
2023-02-09T13:24:00.104Z,11.70
2023-02-09T13:49:07.092Z,11.47
2023-02-09T16:20:32.199Z,13.03
2023-02-09T17:28:04.430Z,13.67
2023-02-09T17:41:43.779Z,13.60
2023-02-09T17:44:46.055Z,13.10
2023-02-09T17:47:40.544Z,12.87
2023-02-09T17:50:08.641Z,13.47
2023-02-09T17:56:44.695Z,13.43
2023-02-09T17:59:44.466Z,12.67
2023-02-09T18:02:18.169Z,15.30
2023-02-09T18:05:19.891Z,14.27
2023-02-09T18:07:52.997Z,15.00
2023-02-09T18:10:26.227Z,15.33
2023-02-09T18:13:06.363Z,14.97
2023-02-09T18:16:01.097Z,14.33
2023-02-09T18:18:28.890Z,15.47
2023-02-09T18:20:56.683Z,16.00
2023-02-09T18:23:26.688Z,14.83
2023-02-09T18:29:53.219Z,14.70
2023-02-09T18:32:23.919Z,15.47
2023-02-09T18:34:54.948Z,15.20
2023-02-09T18:37:26.462Z,14.53
2023-02-09T18:43:42.712Z,15.23
2023-02-09T18:46:38.768Z,17.77
2023-02-09T18:49:53.362Z,17.10
2023-02-09T18:53:13.034Z,17.30
2023-02-09T19:03:24.249Z,15.70
2023-02-09T19:06:07.945Z,15.10
2023-02-09T19:08:44.773Z,15.17
2023-02-09T19:15:10.864Z,14.47
2023-02-09T22:57:05.123Z,29.50
2023-02-09T23:00:14.245Z,30.33
2023-02-09T23:03:06.863Z,31.20
2023-02-09T23:09:31.704Z,29.73
2023-02-09T23:13:16.452Z,29.30
2023-02-09T23:16:14.693Z,30.57
2023-02-09T23:19:42.477Z,30.70
2023-02-09T23:26:50.967Z,30.07
2023-02-09T23:35:01.609Z,31.17
2023-02-09T23:37:37.560Z,31.73
2023-02-09T23:40:06.206Z,31.00
2023-02-09T23:42:34.072Z,31.27
2023-02-09T23:45:01.864Z,29.80
2023-02-09T23:47:30.774Z,32.00
2023-02-09T23:50:43.211Z,32.13
2023-02-09T23:57:15.106Z,30.23
2023-02-09T23:59:59.231Z,30.40
